sensor_id;sensor_type;location;lat;lon;timestamp;P1;durP1;ratioP1;P2;durP2;ratioP2
50429;SDS011;36359;41.556;-8.418;2023-08-01T00:00:50;1.48;;;0.63;;
50429;SDS011;36359;41.556;-8.418;2023-08-01T00:03:16;1.08;;;0.50;;
50429;SDS011;36359;41.556;-8.418;2023-08-01T00:05:42;1.30;;;0.57;;
50429;SDS011;36359;41.556;-8.418;2023-08-01T00:08:10;2.25;;;0.30;;
50429;SDS011;36359;41.556;-8.418;2023-08-01T00:10:38;1.00;;;0.50;;
50429;SDS011;36359;41.556;-8.418;2023-08-01T00:13:04;0.98;;;0.65;;
50429;SDS011;36359;41.556;-8.418;2023-08-01T00:15:30;1.35;;;0.70;;
50429;SDS011;36359;41.556;-8.418;2023-08-01T00:17:56;0.47;;;0.30;;
50429;SDS011;36359;41.556;-8.418;2023-08-01T00:20:21;1.40;;;0.47;;
50429;SDS011;36359;41.556;-8.418;2023-08-01T00:22:47;2.55;;;0.60;;
50429;SDS011;36359;41.556;-8.418;2023-08-01T00:25:13;2.55;;;0.70;;
50429;SDS011;36359;41.556;-8.418;2023-08-01T00:27:39;1.45;;;0.50;;
50429;SDS011;36359;41.556;-8.418;2023-08-01T00:30:05;3.05;;;0.70;;
50429;SDS011;36359;41.556;-8.418;2023-08-01T00:32:32;2.05;;;0.57;;
50429;SDS011;36359;41.556;-8.418;2023-08-01T00:34:57;1.35;;;0.63;;
50429;SDS011;36359;41.556;-8.418;2023-08-01T00:37:23;0.93;;;0.40;;
50429;SDS011;36359;41.556;-8.418;2023-08-01T00:39:49;0.98;;;0.30;;
50429;SDS011;36359;41.556;-8.418;2023-08-01T00:42:15;1.48;;;0.75;;
50429;SDS011;36359;41.556;-8.418;2023-08-01T00:44:41;1.10;;;0.52;;
50429;SDS011;36359;41.556;-8.418;2023-08-01T00:47:07;0.75;;;0.30;;
50429;SDS011;36359;41.556;-8.418;2023-08-01T00:49:33;0.98;;;0.40;;
50429;SDS011;36359;41.556;-8.418;2023-08-01T00:51:59;1.42;;;0.40;;
50429;SDS011;36359;41.556;-8.418;2023-08-01T00:54:25;0.40;;;0.30;;
50429;SDS011;36359;41.556;-8.418;2023-08-01T00:56:52;2.47;;;0.90;;
50429;SDS011;36359;41.556;-8.418;2023-08-01T00:59:18;1.48;;;0.95;;
50429;SDS011;36359;41.556;-8.418;2023-08-01T01:01:43;1.20;;;0.52;;
50429;SDS011;36359;41.556;-8.418;2023-08-01T01:04:09;1.13;;;0.57;;
50429;SDS011;36359;41.556;-8.418;2023-08-01T01:06:44;0.68;;;0.38;;
50429;SDS011;36359;41.556;-8.418;2023-08-01T01:09:19;1.08;;;0.52;;
50429;SDS011;36359;41.556;-8.418;2023-08-01T01:11:45;1.35;;;0.60;;
50429;SDS011;36359;41.556;-8.418;2023-08-01T01:14:11;1.23;;;0.50;;
50429;SDS011;36359;41.556;-8.418;2023-08-01T01:16:37;1.25;;;0.55;;
50429;SDS011;36359;41.556;-8.418;2023-08-01T01:19:07;1.45;;;0.65;;
50429;SDS011;36359;41.556;-8.418;2023-08-01T01:21:39;1.48;;;0.60;;
50429;SDS011;36359;41.556;-8.418;2023-08-01T01:24:08;1.08;;;0.47;;
50429;SDS011;36359;41.556;-8.418;2023-08-01T01:26:35;2.47;;;0.55;;
50429;SDS011;36359;41.556;-8.418;2023-08-01T01:29:02;3.03;;;0.90;;
50429;SDS011;36359;41.556;-8.418;2023-08-01T01:31:30;2.38;;;0.90;;
50429;SDS011;36359;41.556;-8.418;2023-08-01T01:33:57;2.28;;;0.93;;
50429;SDS011;36359;41.556;-8.418;2023-08-01T01:36:23;3.03;;;1.10;;
50429;SDS011;36359;41.556;-8.418;2023-08-01T01:38:48;2.58;;;1.00;;
50429;SDS011;36359;41.556;-8.418;2023-08-01T01:41:14;1.88;;;1.15;;
50429;SDS011;36359;41.556;-8.418;2023-08-01T01:43:40;1.33;;;0.85;;
50429;SDS011;36359;41.556;-8.418;2023-08-01T01:46:06;2.97;;;1.20;;
50429;SDS011;36359;41.556;-8.418;2023-08-01T01:48:32;1.05;;;0.40;;
50429;SDS011;36359;41.556;-8.418;2023-08-01T01:50:58;2.13;;;0.93;;
50429;SDS011;36359;41.556;-8.418;2023-08-01T01:53:24;1.98;;;0.85;;
50429;SDS011;36359;41.556;-8.418;2023-08-01T01:55:50;1.63;;;1.08;;
50429;SDS011;36359;41.556;-8.418;2023-08-01T01:58:16;2.67;;;0.80;;
50429;SDS011;36359;41.556;-8.418;2023-08-01T02:00:41;2.05;;;1.00;;
50429;SDS011;36359;41.556;-8.418;2023-08-01T02:03:07;1.85;;;0.90;;
50429;SDS011;36359;41.556;-8.418;2023-08-01T02:05:44;2.17;;;0.70;;
50429;SDS011;36359;41.556;-8.418;2023-08-01T02:08:10;2.50;;;0.82;;
50429;SDS011;36359;41.556;-8.418;2023-08-01T02:10:36;1.50;;;0.85;;
50429;SDS011;36359;41.556;-8.418;2023-08-01T02:13:01;1.02;;;0.50;;
50429;SDS011;36359;41.556;-8.418;2023-08-01T02:15:27;1.98;;;1.20;;
50429;SDS011;36359;41.556;-8.418;2023-08-01T02:17:53;2.25;;;0.80;;
50429;SDS011;36359;41.556;-8.418;2023-08-01T02:20:19;2.38;;;1.00;;
50429;SDS011;36359;41.556;-8.418;2023-08-01T02:22:44;1.23;;;0.63;;
50429;SDS011;36359;41.556;-8.418;2023-08-01T02:25:10;3.15;;;1.00;;
50429;SDS011;36359;41.556;-8.418;2023-08-01T02:27:36;1.52;;;0.85;;
50429;SDS011;36359;41.556;-8.418;2023-08-01T02:30:02;2.63;;;1.38;;
50429;SDS011;36359;41.556;-8.418;2023-08-01T02:32:28;1.35;;;0.65;;
50429;SDS011;36359;41.556;-8.418;2023-08-01T02:34:53;1.10;;;0.60;;
50429;SDS011;36359;41.556;-8.418;2023-08-01T02:37:19;1.35;;;0.93;;
50429;SDS011;36359;41.556;-8.418;2023-08-01T02:39:45;2.17;;;0.68;;
50429;SDS011;36359;41.556;-8.418;2023-08-01T02:42:10;2.17;;;0.93;;
50429;SDS011;36359;41.556;-8.418;2023-08-01T02:44:36;1.20;;;0.60;;
50429;SDS011;36359;41.556;-8.418;2023-08-01T02:47:02;1.88;;;0.98;;
50429;SDS011;36359;41.556;-8.418;2023-08-01T02:49:28;1.15;;;0.68;;
50429;SDS011;36359;41.556;-8.418;2023-08-01T02:51:53;1.83;;;0.75;;
50429;SDS011;36359;41.556;-8.418;2023-08-01T02:54:19;2.25;;;0.85;;
50429;SDS011;36359;41.556;-8.418;2023-08-01T02:56:45;1.42;;;0.60;;
50429;SDS011;36359;41.556;-8.418;2023-08-01T02:59:10;1.20;;;0.70;;
50429;SDS011;36359;41.556;-8.418;2023-08-01T03:01:36;2.28;;;1.30;;
50429;SDS011;36359;41.556;-8.418;2023-08-01T03:04:03;2.25;;;1.58;;
50429;SDS011;36359;41.556;-8.418;2023-08-01T03:06:31;3.42;;;1.40;;
50429;SDS011;36359;41.556;-8.418;2023-08-01T03:08:57;1.90;;;1.02;;
50429;SDS011;36359;41.556;-8.418;2023-08-01T03:11:23;1.40;;;0.88;;
50429;SDS011;36359;41.556;-8.418;2023-08-01T03:13:49;1.40;;;0.88;;
50429;SDS011;36359;41.556;-8.418;2023-08-01T03:16:16;1.48;;;0.90;;
50429;SDS011;36359;41.556;-8.418;2023-08-01T03:18:41;2.67;;;1.42;;
50429;SDS011;36359;41.556;-8.418;2023-08-01T03:21:08;2.05;;;1.17;;
50429;SDS011;36359;41.556;-8.418;2023-08-01T03:23:34;1.52;;;0.90;;
50429;SDS011;36359;41.556;-8.418;2023-08-01T03:26:00;2.72;;;1.45;;
50429;SDS011;36359;41.556;-8.418;2023-08-01T03:28:26;1.80;;;1.20;;
50429;SDS011;36359;41.556;-8.418;2023-08-01T03:30:52;3.08;;;1.00;;
50429;SDS011;36359;41.556;-8.418;2023-08-01T03:33:19;2.83;;;1.50;;
50429;SDS011;36359;41.556;-8.418;2023-08-01T03:35:45;2.25;;;1.55;;
50429;SDS011;36359;41.556;-8.418;2023-08-01T03:38:11;4.60;;;2.30;;
50429;SDS011;36359;41.556;-8.418;2023-08-01T03:40:37;5.50;;;3.15;;
50429;SDS011;36359;41.556;-8.418;2023-08-01T03:43:03;4.40;;;1.90;;
50429;SDS011;36359;41.556;-8.418;2023-08-01T03:45:28;2.25;;;1.73;;
50429;SDS011;36359;41.556;-8.418;2023-08-01T03:47:54;2.20;;;1.40;;
50429;SDS011;36359;41.556;-8.418;2023-08-01T03:50:20;2.15;;;1.60;;
50429;SDS011;36359;41.556;-8.418;2023-08-01T03:52:48;2.65;;;1.30;;
50429;SDS011;36359;41.556;-8.418;2023-08-01T03:55:14;2.60;;;1.17;;
50429;SDS011;36359;41.556;-8.418;2023-08-01T03:57:41;3.03;;;1.50;;
50429;SDS011;36359;41.556;-8.418;2023-08-01T04:00:08;2.97;;;1.52;;
50429;SDS011;36359;41.556;-8.418;2023-08-01T04:02:43;2.17;;;1.23;;
50429;SDS011;36359;41.556;-8.418;2023-08-01T04:05:10;2.35;;;1.25;;
50429;SDS011;36359;41.556;-8.418;2023-08-01T04:07:36;3.33;;;1.42;;
50429;SDS011;36359;41.556;-8.418;2023-08-01T04:10:03;3.60;;;1.65;;
50429;SDS011;36359;41.556;-8.418;2023-08-01T04:12:30;4.28;;;2.30;;
50429;SDS011;36359;41.556;-8.418;2023-08-01T04:14:57;3.47;;;1.67;;
50429;SDS011;36359;41.556;-8.418;2023-08-01T04:17:23;4.53;;;2.10;;
50429;SDS011;36359;41.556;-8.418;2023-08-01T04:19:49;3.08;;;1.85;;
50429;SDS011;36359;41.556;-8.418;2023-08-01T04:22:14;3.67;;;2.25;;
50429;SDS011;36359;41.556;-8.418;2023-08-01T04:24:41;3.90;;;1.95;;
50429;SDS011;36359;41.556;-8.418;2023-08-01T04:27:09;3.00;;;1.70;;
50429;SDS011;36359;41.556;-8.418;2023-08-01T04:29:35;4.28;;;2.13;;
50429;SDS011;36359;41.556;-8.418;2023-08-01T04:32:00;3.25;;;1.67;;
50429;SDS011;36359;41.556;-8.418;2023-08-01T04:34:26;5.03;;;2.00;;
50429;SDS011;36359;41.556;-8.418;2023-08-01T04:36:52;3.85;;;2.45;;
50429;SDS011;36359;41.556;-8.418;2023-08-01T04:39:17;3.70;;;2.30;;
50429;SDS011;36359;41.556;-8.418;2023-08-01T04:41:43;2.72;;;1.90;;
50429;SDS011;36359;41.556;-8.418;2023-08-01T04:44:09;4.75;;;2.20;;
50429;SDS011;36359;41.556;-8.418;2023-08-01T04:46:34;3.63;;;2.20;;
50429;SDS011;36359;41.556;-8.418;2023-08-01T04:49:00;4.57;;;2.13;;
50429;SDS011;36359;41.556;-8.418;2023-08-01T04:51:26;1.75;;;1.33;;
50429;SDS011;36359;41.556;-8.418;2023-08-01T04:53:51;2.47;;;1.85;;
50429;SDS011;36359;41.556;-8.418;2023-08-01T04:56:17;2.58;;;1.23;;
50429;SDS011;36359;41.556;-8.418;2023-08-01T04:58:43;1.73;;;1.10;;
50429;SDS011;36359;41.556;-8.418;2023-08-01T05:01:09;3.08;;;1.50;;
50429;SDS011;36359;41.556;-8.418;2023-08-01T05:03:34;2.78;;;1.70;;
50429;SDS011;36359;41.556;-8.418;2023-08-01T05:06:00;2.38;;;1.52;;
50429;SDS011;36359;41.556;-8.418;2023-08-01T05:08:26;2.38;;;1.48;;
50429;SDS011;36359;41.556;-8.418;2023-08-01T05:10:51;2.42;;;1.40;;
50429;SDS011;36359;41.556;-8.418;2023-08-01T05:13:17;3.40;;;1.50;;
50429;SDS011;36359;41.556;-8.418;2023-08-01T05:15:46;1.80;;;1.23;;
50429;SDS011;36359;41.556;-8.418;2023-08-01T05:18:13;2.97;;;1.48;;
50429;SDS011;36359;41.556;-8.418;2023-08-01T05:20:39;2.53;;;1.17;;
50429;SDS011;36359;41.556;-8.418;2023-08-01T05:23:05;3.30;;;1.60;;
50429;SDS011;36359;41.556;-8.418;2023-08-01T05:25:31;2.60;;;1.40;;
50429;SDS011;36359;41.556;-8.418;2023-08-01T05:27:56;2.28;;;1.00;;
50429;SDS011;36359;41.556;-8.418;2023-08-01T05:30:23;2.60;;;1.60;;
50429;SDS011;36359;41.556;-8.418;2023-08-01T05:32:49;1.50;;;1.13;;
50429;SDS011;36359;41.556;-8.418;2023-08-01T05:35:15;1.88;;;1.30;;
50429;SDS011;36359;41.556;-8.418;2023-08-01T05:37:42;2.88;;;1.63;;
50429;SDS011;36359;41.556;-8.418;2023-08-01T05:40:08;3.55;;;1.30;;
50429;SDS011;36359;41.556;-8.418;2023-08-01T05:42:34;2.13;;;1.20;;
50429;SDS011;36359;41.556;-8.418;2023-08-01T05:44:59;2.15;;;1.40;;
50429;SDS011;36359;41.556;-8.418;2023-08-01T05:47:25;4.70;;;1.60;;
50429;SDS011;36359;41.556;-8.418;2023-08-01T05:49:51;2.42;;;1.60;;
50429;SDS011;36359;41.556;-8.418;2023-08-01T05:52:17;2.97;;;1.73;;
50429;SDS011;36359;41.556;-8.418;2023-08-01T05:54:42;1.92;;;1.20;;
50429;SDS011;36359;41.556;-8.418;2023-08-01T05:57:08;1.55;;;0.95;;
50429;SDS011;36359;41.556;-8.418;2023-08-01T05:59:34;3.50;;;1.70;;
50429;SDS011;36359;41.556;-8.418;2023-08-01T06:01:59;5.28;;;1.80;;
50429;SDS011;36359;41.556;-8.418;2023-08-01T06:04:25;3.97;;;2.00;;
50429;SDS011;36359;41.556;-8.418;2023-08-01T06:06:52;4.30;;;2.20;;
50429;SDS011;36359;41.556;-8.418;2023-08-01T06:09:18;3.05;;;1.80;;
50429;SDS011;36359;41.556;-8.418;2023-08-01T06:11:43;4.43;;;2.25;;
50429;SDS011;36359;41.556;-8.418;2023-08-01T06:14:09;5.03;;;2.33;;
50429;SDS011;36359;41.556;-8.418;2023-08-01T06:16:35;4.30;;;2.25;;
50429;SDS011;36359;41.556;-8.418;2023-08-01T06:19:01;4.07;;;2.20;;
50429;SDS011;36359;41.556;-8.418;2023-08-01T06:21:27;3.10;;;2.00;;
50429;SDS011;36359;41.556;-8.418;2023-08-01T06:23:53;3.47;;;1.90;;
50429;SDS011;36359;41.556;-8.418;2023-08-01T06:26:19;4.45;;;1.80;;
50429;SDS011;36359;41.556;-8.418;2023-08-01T06:28:44;4.70;;;2.13;;
50429;SDS011;36359;41.556;-8.418;2023-08-01T06:31:10;5.03;;;2.03;;
50429;SDS011;36359;41.556;-8.418;2023-08-01T06:33:36;3.85;;;2.45;;
50429;SDS011;36359;41.556;-8.418;2023-08-01T06:36:02;5.72;;;2.55;;
50429;SDS011;36359;41.556;-8.418;2023-08-01T06:38:28;3.38;;;2.10;;
50429;SDS011;36359;41.556;-8.418;2023-08-01T06:40:53;4.68;;;2.42;;
50429;SDS011;36359;41.556;-8.418;2023-08-01T06:43:19;4.78;;;2.13;;
50429;SDS011;36359;41.556;-8.418;2023-08-01T06:45:44;3.35;;;2.05;;
50429;SDS011;36359;41.556;-8.418;2023-08-01T06:48:10;3.63;;;1.90;;
50429;SDS011;36359;41.556;-8.418;2023-08-01T06:50:36;3.42;;;1.60;;
50429;SDS011;36359;41.556;-8.418;2023-08-01T06:53:02;2.88;;;1.90;;
50429;SDS011;36359;41.556;-8.418;2023-08-01T06:55:27;4.07;;;1.50;;
50429;SDS011;36359;41.556;-8.418;2023-08-01T06:57:53;2.05;;;1.30;;
50429;SDS011;36359;41.556;-8.418;2023-08-01T07:00:19;2.92;;;1.58;;
50429;SDS011;36359;41.556;-8.418;2023-08-01T07:02:44;3.17;;;1.85;;
50429;SDS011;36359;41.556;-8.418;2023-08-01T07:05:10;3.00;;;1.90;;
50429;SDS011;36359;41.556;-8.418;2023-08-01T07:07:36;5.00;;;1.90;;
50429;SDS011;36359;41.556;-8.418;2023-08-01T07:10:01;3.33;;;1.65;;
50429;SDS011;36359;41.556;-8.418;2023-08-01T07:12:27;3.60;;;2.13;;
50429;SDS011;36359;41.556;-8.418;2023-08-01T07:14:53;4.32;;;2.42;;
50429;SDS011;36359;41.556;-8.418;2023-08-01T07:17:18;2.80;;;1.90;;
50429;SDS011;36359;41.556;-8.418;2023-08-01T07:19:44;3.50;;;2.10;;
50429;SDS011;36359;41.556;-8.418;2023-08-01T07:22:10;5.10;;;2.50;;
50429;SDS011;36359;41.556;-8.418;2023-08-01T07:24:36;6.95;;;5.03;;
50429;SDS011;36359;41.556;-8.418;2023-08-01T07:27:01;8.32;;;6.18;;
50429;SDS011;36359;41.556;-8.418;2023-08-01T07:29:31;5.90;;;3.47;;
50429;SDS011;36359;41.556;-8.418;2023-08-01T07:31:57;4.00;;;1.35;;
50429;SDS011;36359;41.556;-8.418;2023-08-01T07:34:23;2.20;;;1.45;;
50429;SDS011;36359;41.556;-8.418;2023-08-01T07:36:49;2.70;;;1.60;;
50429;SDS011;36359;41.556;-8.418;2023-08-01T07:39:15;3.58;;;2.55;;
50429;SDS011;36359;41.556;-8.418;2023-08-01T07:41:41;8.93;;;5.82;;
50429;SDS011;36359;41.556;-8.418;2023-08-01T07:44:07;4.32;;;2.25;;
50429;SDS011;36359;41.556;-8.418;2023-08-01T07:46:33;7.32;;;5.47;;
50429;SDS011;36359;41.556;-8.418;2023-08-01T07:48:58;7.30;;;5.25;;
50429;SDS011;36359;41.556;-8.418;2023-08-01T07:51:27;7.95;;;5.55;;
50429;SDS011;36359;41.556;-8.418;2023-08-01T07:53:53;12.07;;;6.65;;
50429;SDS011;36359;41.556;-8.418;2023-08-01T07:56:20;4.55;;;2.40;;
50429;SDS011;36359;41.556;-8.418;2023-08-01T07:58:45;4.97;;;3.03;;
50429;SDS011;36359;41.556;-8.418;2023-08-01T08:01:11;6.32;;;4.25;;
50429;SDS011;36359;41.556;-8.418;2023-08-01T08:03:37;5.05;;;3.60;;
50429;SDS011;36359;41.556;-8.418;2023-08-01T08:06:03;5.47;;;3.15;;
50429;SDS011;36359;41.556;-8.418;2023-08-01T08:08:30;3.70;;;2.60;;
50429;SDS011;36359;41.556;-8.418;2023-08-01T08:10:58;3.78;;;2.25;;
50429;SDS011;36359;41.556;-8.418;2023-08-01T08:13:24;4.60;;;2.38;;
50429;SDS011;36359;41.556;-8.418;2023-08-01T08:15:50;5.40;;;3.00;;
50429;SDS011;36359;41.556;-8.418;2023-08-01T08:18:16;3.67;;;2.70;;
50429;SDS011;36359;41.556;-8.418;2023-08-01T08:20:44;5.68;;;3.15;;
50429;SDS011;36359;41.556;-8.418;2023-08-01T08:23:11;5.65;;;2.92;;
50429;SDS011;36359;41.556;-8.418;2023-08-01T08:25:40;5.03;;;3.00;;
50429;SDS011;36359;41.556;-8.418;2023-08-01T08:28:07;3.42;;;2.42;;
50429;SDS011;36359;41.556;-8.418;2023-08-01T08:30:33;5.68;;;3.30;;
50429;SDS011;36359;41.556;-8.418;2023-08-01T08:33:00;3.90;;;2.47;;
50429;SDS011;36359;41.556;-8.418;2023-08-01T08:35:30;6.50;;;3.78;;
50429;SDS011;36359;41.556;-8.418;2023-08-01T08:37:58;4.60;;;2.78;;
50429;SDS011;36359;41.556;-8.418;2023-08-01T08:40:24;4.63;;;2.40;;
50429;SDS011;36359;41.556;-8.418;2023-08-01T08:42:52;3.70;;;2.30;;
50429;SDS011;36359;41.556;-8.418;2023-08-01T08:45:18;3.53;;;2.28;;
50429;SDS011;36359;41.556;-8.418;2023-08-01T08:47:47;5.57;;;3.47;;
50429;SDS011;36359;41.556;-8.418;2023-08-01T08:50:18;5.18;;;3.08;;
50429;SDS011;36359;41.556;-8.418;2023-08-01T08:52:45;7.43;;;4.32;;
50429;SDS011;36359;41.556;-8.418;2023-08-01T08:55:11;5.78;;;3.88;;
50429;SDS011;36359;41.556;-8.418;2023-08-01T08:57:37;4.53;;;3.10;;
50429;SDS011;36359;41.556;-8.418;2023-08-01T09:00:05;3.92;;;2.30;;
50429;SDS011;36359;41.556;-8.418;2023-08-01T09:02:34;5.55;;;2.95;;
50429;SDS011;36359;41.556;-8.418;2023-08-01T09:04:59;4.38;;;2.70;;
50429;SDS011;36359;41.556;-8.418;2023-08-01T09:07:26;5.45;;;2.72;;
50429;SDS011;36359;41.556;-8.418;2023-08-01T09:12:21;7.05;;;4.30;;
50429;SDS011;36359;41.556;-8.418;2023-08-01T09:14:48;6.93;;;4.00;;
50429;SDS011;36359;41.556;-8.418;2023-08-01T09:17:16;3.83;;;2.30;;
50429;SDS011;36359;41.556;-8.418;2023-08-01T09:19:43;4.78;;;3.13;;
50429;SDS011;36359;41.556;-8.418;2023-08-01T09:22:13;6.88;;;3.75;;
50429;SDS011;36359;41.556;-8.418;2023-08-01T09:24:49;4.13;;;2.70;;
50429;SDS011;36359;41.556;-8.418;2023-08-01T09:27:16;6.70;;;4.45;;
50429;SDS011;36359;41.556;-8.418;2023-08-01T09:29:41;4.90;;;2.42;;
50429;SDS011;36359;41.556;-8.418;2023-08-01T09:32:11;7.93;;;4.38;;
50429;SDS011;36359;41.556;-8.418;2023-08-01T09:34:38;7.30;;;4.13;;
50429;SDS011;36359;41.556;-8.418;2023-08-01T09:37:03;4.80;;;2.88;;
50429;SDS011;36359;41.556;-8.418;2023-08-01T09:39:29;2.67;;;2.00;;
50429;SDS011;36359;41.556;-8.418;2023-08-01T09:41:56;8.25;;;4.60;;
50429;SDS011;36359;41.556;-8.418;2023-08-01T09:44:22;7.55;;;4.80;;
50429;SDS011;36359;41.556;-8.418;2023-08-01T09:47:01;4.15;;;2.38;;
50429;SDS011;36359;41.556;-8.418;2023-08-01T09:49:29;11.90;;;6.10;;
50429;SDS011;36359;41.556;-8.418;2023-08-01T09:51:55;9.00;;;5.13;;
50429;SDS011;36359;41.556;-8.418;2023-08-01T09:54:22;11.15;;;5.60;;
50429;SDS011;36359;41.556;-8.418;2023-08-01T09:56:50;8.43;;;4.97;;
50429;SDS011;36359;41.556;-8.418;2023-08-01T09:59:18;9.73;;;5.38;;
50429;SDS011;36359;41.556;-8.418;2023-08-01T10:01:51;9.57;;;5.20;;
50429;SDS011;36359;41.556;-8.418;2023-08-01T10:04:19;10.23;;;5.75;;
50429;SDS011;36359;41.556;-8.418;2023-08-01T10:06:49;11.23;;;5.32;;
50429;SDS011;36359;41.556;-8.418;2023-08-01T10:09:23;10.07;;;5.75;;
50429;SDS011;36359;41.556;-8.418;2023-08-01T10:11:49;13.80;;;5.60;;
50429;SDS011;36359;41.556;-8.418;2023-08-01T10:14:16;7.35;;;3.85;;
50429;SDS011;36359;41.556;-8.418;2023-08-01T10:16:43;13.52;;;5.38;;
50429;SDS011;36359;41.556;-8.418;2023-08-01T10:19:09;10.20;;;4.68;;
50429;SDS011;36359;41.556;-8.418;2023-08-01T10:21:37;13.80;;;5.57;;
50429;SDS011;36359;41.556;-8.418;2023-08-01T10:24:04;12.05;;;5.47;;
50429;SDS011;36359;41.556;-8.418;2023-08-01T10:26:31;13.90;;;6.57;;
50429;SDS011;36359;41.556;-8.418;2023-08-01T10:28:58;11.52;;;5.93;;
50429;SDS011;36359;41.556;-8.418;2023-08-01T10:31:25;6.95;;;3.72;;
50429;SDS011;36359;41.556;-8.418;2023-08-01T10:33:51;4.40;;;2.75;;
50429;SDS011;36359;41.556;-8.418;2023-08-01T10:36:18;7.85;;;4.50;;
50429;SDS011;36359;41.556;-8.418;2023-08-01T10:38:49;10.75;;;5.13;;
50429;SDS011;36359;41.556;-8.418;2023-08-01T10:41:24;5.90;;;3.50;;
50429;SDS011;36359;41.556;-8.418;2023-08-01T10:47:00;9.90;;;5.15;;
50429;SDS011;36359;41.556;-8.418;2023-08-01T10:52:02;4.93;;;2.83;;
50429;SDS011;36359;41.556;-8.418;2023-08-01T10:54:29;7.90;;;3.38;;
50429;SDS011;36359;41.556;-8.418;2023-08-01T10:56:56;7.72;;;4.07;;
50429;SDS011;36359;41.556;-8.418;2023-08-01T10:59:25;9.32;;;5.18;;
50429;SDS011;36359;41.556;-8.418;2023-08-01T11:01:52;10.82;;;5.70;;
50429;SDS011;36359;41.556;-8.418;2023-08-01T11:04:20;8.30;;;5.18;;
50429;SDS011;36359;41.556;-8.418;2023-08-01T11:06:47;7.32;;;5.50;;
50429;SDS011;36359;41.556;-8.418;2023-08-01T11:09:21;8.38;;;6.22;;
50429;SDS011;36359;41.556;-8.418;2023-08-01T11:11:52;9.02;;;5.60;;
50429;SDS011;36359;41.556;-8.418;2023-08-01T11:14:24;6.35;;;4.38;;
50429;SDS011;36359;41.556;-8.418;2023-08-01T11:16:56;5.70;;;3.13;;
50429;SDS011;36359;41.556;-8.418;2023-08-01T11:19:26;6.85;;;4.22;;
50429;SDS011;36359;41.556;-8.418;2023-08-01T11:21:53;6.80;;;4.72;;
50429;SDS011;36359;41.556;-8.418;2023-08-01T11:24:22;4.32;;;2.65;;
50429;SDS011;36359;41.556;-8.418;2023-08-01T11:26:49;5.93;;;2.50;;
50429;SDS011;36359;41.556;-8.418;2023-08-01T11:29:16;5.05;;;3.45;;
50429;SDS011;36359;41.556;-8.418;2023-08-01T11:31:52;5.47;;;3.05;;
50429;SDS011;36359;41.556;-8.418;2023-08-01T11:34:22;6.65;;;4.70;;
50429;SDS011;36359;41.556;-8.418;2023-08-01T11:36:48;6.90;;;4.60;;
50429;SDS011;36359;41.556;-8.418;2023-08-01T11:39:15;5.15;;;3.30;;
50429;SDS011;36359;41.556;-8.418;2023-08-01T11:41:41;5.80;;;4.25;;
50429;SDS011;36359;41.556;-8.418;2023-08-01T11:44:08;5.35;;;3.72;;
50429;SDS011;36359;41.556;-8.418;2023-08-01T11:46:36;4.18;;;3.00;;
50429;SDS011;36359;41.556;-8.418;2023-08-01T11:49:02;3.90;;;3.20;;
50429;SDS011;36359;41.556;-8.418;2023-08-01T11:51:28;6.28;;;4.20;;
50429;SDS011;36359;41.556;-8.418;2023-08-01T11:53:57;4.00;;;2.70;;
50429;SDS011;36359;41.556;-8.418;2023-08-01T11:56:27;4.32;;;2.58;;
50429;SDS011;36359;41.556;-8.418;2023-08-01T11:58:53;4.90;;;2.80;;
50429;SDS011;36359;41.556;-8.418;2023-08-01T12:01:19;4.70;;;3.35;;
50429;SDS011;36359;41.556;-8.418;2023-08-01T12:03:49;5.43;;;2.88;;
50429;SDS011;36359;41.556;-8.418;2023-08-01T12:06:17;4.07;;;2.53;;
50429;SDS011;36359;41.556;-8.418;2023-08-01T12:08:45;3.67;;;2.80;;
50429;SDS011;36359;41.556;-8.418;2023-08-01T12:11:25;4.20;;;3.00;;
50429;SDS011;36359;41.556;-8.418;2023-08-01T12:19:22;5.07;;;3.53;;
50429;SDS011;36359;41.556;-8.418;2023-08-01T12:21:48;3.95;;;2.80;;
50429;SDS011;36359;41.556;-8.418;2023-08-01T12:24:14;6.80;;;3.60;;
50429;SDS011;36359;41.556;-8.418;2023-08-01T12:26:40;5.55;;;3.95;;
50429;SDS011;36359;41.556;-8.418;2023-08-01T12:29:05;4.93;;;3.78;;
50429;SDS011;36359;41.556;-8.418;2023-08-01T12:31:32;5.93;;;3.83;;
50429;SDS011;36359;41.556;-8.418;2023-08-01T12:33:58;5.43;;;3.85;;
50429;SDS011;36359;41.556;-8.418;2023-08-01T12:36:24;5.32;;;3.72;;
50429;SDS011;36359;41.556;-8.418;2023-08-01T12:38:49;4.40;;;3.47;;
50429;SDS011;36359;41.556;-8.418;2023-08-01T12:41:15;6.30;;;4.43;;
50429;SDS011;36359;41.556;-8.418;2023-08-01T12:43:41;6.78;;;4.13;;
50429;SDS011;36359;41.556;-8.418;2023-08-01T12:46:06;5.85;;;4.32;;
50429;SDS011;36359;41.556;-8.418;2023-08-01T12:48:32;6.63;;;4.22;;
50429;SDS011;36359;41.556;-8.418;2023-08-01T12:50:58;5.15;;;3.70;;
50429;SDS011;36359;41.556;-8.418;2023-08-01T12:53:24;4.95;;;3.70;;
50429;SDS011;36359;41.556;-8.418;2023-08-01T12:55:52;4.25;;;3.70;;
50429;SDS011;36359;41.556;-8.418;2023-08-01T12:58:18;5.63;;;3.95;;
50429;SDS011;36359;41.556;-8.418;2023-08-01T13:00:44;5.72;;;5.13;;
50429;SDS011;36359;41.556;-8.418;2023-08-01T13:03:11;5.97;;;5.38;;
50429;SDS011;36359;41.556;-8.418;2023-08-01T13:05:38;4.80;;;3.63;;
50429;SDS011;36359;41.556;-8.418;2023-08-01T13:08:04;5.63;;;3.65;;
50429;SDS011;36359;41.556;-8.418;2023-08-01T13:10:31;7.18;;;5.50;;
50429;SDS011;36359;41.556;-8.418;2023-08-01T13:13:01;6.60;;;5.22;;
50429;SDS011;36359;41.556;-8.418;2023-08-01T13:15:27;4.70;;;3.85;;
50429;SDS011;36359;41.556;-8.418;2023-08-01T13:17:53;7.18;;;5.00;;
50429;SDS011;36359;41.556;-8.418;2023-08-01T13:20:19;4.03;;;3.63;;
50429;SDS011;36359;41.556;-8.418;2023-08-01T13:22:46;5.57;;;4.47;;
50429;SDS011;36359;41.556;-8.418;2023-08-01T13:25:13;3.65;;;3.15;;
50429;SDS011;36359;41.556;-8.418;2023-08-01T13:27:39;4.65;;;3.65;;
50429;SDS011;36359;41.556;-8.418;2023-08-01T13:30:05;4.53;;;3.20;;
50429;SDS011;36359;41.556;-8.418;2023-08-01T13:32:32;3.67;;;3.20;;
50429;SDS011;36359;41.556;-8.418;2023-08-01T13:34:57;6.32;;;3.67;;
50429;SDS011;36359;41.556;-8.418;2023-08-01T13:37:23;4.05;;;3.10;;
50429;SDS011;36359;41.556;-8.418;2023-08-01T13:39:49;4.50;;;3.30;;
50429;SDS011;36359;41.556;-8.418;2023-08-01T13:42:15;4.85;;;2.92;;
50429;SDS011;36359;41.556;-8.418;2023-08-01T13:44:40;2.72;;;2.22;;
50429;SDS011;36359;41.556;-8.418;2023-08-01T13:47:06;3.67;;;2.70;;
50429;SDS011;36359;41.556;-8.418;2023-08-01T13:49:32;3.20;;;2.80;;
50429;SDS011;36359;41.556;-8.418;2023-08-01T13:51:58;3.75;;;2.72;;
50429;SDS011;36359;41.556;-8.418;2023-08-01T13:54:24;3.95;;;2.60;;
50429;SDS011;36359;41.556;-8.418;2023-08-01T13:56:50;3.25;;;2.70;;
50429;SDS011;36359;41.556;-8.418;2023-08-01T13:59:15;4.18;;;2.40;;
50429;SDS011;36359;41.556;-8.418;2023-08-01T14:01:41;3.10;;;2.30;;
50429;SDS011;36359;41.556;-8.418;2023-08-01T14:04:07;3.63;;;2.47;;
50429;SDS011;36359;41.556;-8.418;2023-08-01T14:06:33;2.55;;;2.00;;
50429;SDS011;36359;41.556;-8.418;2023-08-01T14:08:58;4.38;;;2.60;;
50429;SDS011;36359;41.556;-8.418;2023-08-01T14:11:24;6.07;;;3.00;;
50429;SDS011;36359;41.556;-8.418;2023-08-01T14:13:50;5.60;;;3.22;;
50429;SDS011;36359;41.556;-8.418;2023-08-01T14:16:15;4.65;;;2.90;;
50429;SDS011;36359;41.556;-8.418;2023-08-01T14:18:42;5.82;;;2.70;;
50429;SDS011;36359;41.556;-8.418;2023-08-01T14:21:09;7.03;;;3.58;;
50429;SDS011;36359;41.556;-8.418;2023-08-01T14:23:35;4.43;;;2.28;;
50429;SDS011;36359;41.556;-8.418;2023-08-01T14:26:03;6.18;;;3.28;;
50429;SDS011;36359;41.556;-8.418;2023-08-01T14:28:29;3.10;;;2.17;;
50429;SDS011;36359;41.556;-8.418;2023-08-01T14:30:55;6.00;;;2.38;;
50429;SDS011;36359;41.556;-8.418;2023-08-01T14:33:20;3.60;;;2.22;;
50429;SDS011;36359;41.556;-8.418;2023-08-01T14:35:46;3.97;;;2.30;;
50429;SDS011;36359;41.556;-8.418;2023-08-01T14:38:12;6.40;;;2.13;;
50429;SDS011;36359;41.556;-8.418;2023-08-01T14:40:37;6.28;;;2.38;;
50429;SDS011;36359;41.556;-8.418;2023-08-01T14:43:04;2.83;;;2.00;;